Strona główna
METAR-TAF:

METAR-TAF

Lotnisko :

Évreux, Francja

Szerokość geograficzna: 49-01N, Długość geograficzna: 001-13E, wysokość: 141 m

Aktualna obserwacja pogody

Raport powstał 39 minut temu, godzina 05:00 UTC
Wiatr 6 kt od północno-północny wschód
Temperatura 12°C
Wilgotność 67%
Ciśnienie 1019 hPa
Widzialność 10 km lub więcej
Brak chmur poniżej 1500 m i brak chmur cumulonimbus

METAR: LFOE 010500Z AUTO 03006KT CAVOK 12/06 Q1019 NOSIG

czas: 07:39 (05:39 UTC)

Prognoza

Raport powstał 3 godziny i 39 minut temu, godzina 02:00 UTC
Prognoza ważna od 01 godzina 03 UTC do 02 godzina 03 UTC
Wiatr 6 kt od północny wschód
Widzialność 10 km lub więcej
Brak chmur poniżej 1500 m i brak chmur cumulonimbus
Stopniowe zmiany
od 01 godzina 08 UTC do 01 godzina 10 UTC
Wiatr 12 kt od wschodnio-północny wschód w porywach dochodzący do 22 kt
Stopniowe zmiany
od 01 godzina 21 UTC do 01 godzina 24 UTC
Wiatr 7 kt od północny wschód

TAF: LFOE 010200Z 0103/0203 04006KT CAVOK BECMG 0108/0110 06012G22KT BECMG 0121/0124 04007KT

Obserwacja i prognoza pogody dla ponad 4000 lotnisk (raport METAR i TAF).

Dostępne stacje oznaczono żółtymi i czerwonymi punktami na mapie.

Najedź kursorem aby zobaczyć nazwę stacji.

Kliknij aby zobaczyć obserwacje i prognozy pogody.

Aby zmienić mapę: kliknij na zielony przycisk z czarnym krzyżykiem, aby powiększyć; na zielony przycisk z myślnikiem, aby pomniejszyć; na zielone strzałki, aby przejść do map sąsiednich.


METAR-TAF: